Terminal Aerodrome Forecast
Issued by NWS

Home | Current Version | Previous Version | Text Only | Print | Product List | Glossary On
Versions: 1 2 3 4 5 6 7 8 9 10 11 12 13 14
000
FTUS46 KSEW 032347
TAFOLM
TAF
KOLM 032347Z 0400/0424 26007KT P6SM -SHRA BKN040 BKN060
     FM040200 21003KT P6SM BKN060
     FM040600 21006KT P6SM SCT060 BKN100
     FM041200 36003KT P6SM BKN020 BKN060=

USA.gov is the U.S. government's official web portal to all federal, state and local government web resources and services.